createdAt,value
2018-08-09T00:01:41.307Z,99282.48
2018-08-09T00:04:11.238Z,99284.13
2018-08-09T00:06:41.953Z,99288.00
2018-08-09T00:09:12.207Z,99280.17
2018-08-09T00:11:42.476Z,99287.33
2018-08-09T00:14:13.651Z,99281.51
2018-08-09T00:16:43.565Z,99282.51
2018-08-09T00:19:13.825Z,99284.64
2018-08-09T00:21:44.828Z,99288.19
2018-08-09T00:24:16.497Z,99288.91
2018-08-09T00:26:46.244Z,99289.28
2018-08-09T00:29:16.721Z,99289.83
2018-08-09T00:31:47.066Z,99290.16
2018-08-09T00:34:18.372Z,99291.08
2018-08-09T00:36:49.822Z,99293.44
2018-08-09T00:39:20.107Z,99286.41
2018-08-09T00:41:50.238Z,99292.41
2018-08-09T00:44:20.388Z,99292.06
2018-08-09T00:46:51.713Z,99284.32
2018-08-09T00:49:22.326Z,99288.53
2018-08-09T00:51:52.598Z,99283.28
2018-08-09T00:54:23.009Z,99282.63
2018-08-09T00:56:53.164Z,99292.01
2018-08-09T00:59:23.149Z,99293.30
2018-08-09T01:01:53.549Z,99300.53
2018-08-09T01:04:24.462Z,99294.72
2018-08-09T01:06:54.377Z,99295.38
2018-08-09T01:09:24.970Z,99288.67
2018-08-09T01:11:56.529Z,99290.41
2018-08-09T01:14:26.933Z,99289.75
2018-08-09T01:16:56.737Z,99281.27
2018-08-09T01:19:27.825Z,99281.62
2018-08-09T01:21:58.499Z,99280.38
2018-08-09T01:24:29.313Z,99284.16
2018-08-09T01:27:00.909Z,99279.89
2018-08-09T01:29:31.168Z,99285.41
2018-08-09T01:32:01.865Z,99288.43
2018-08-09T01:34:32.084Z,99287.30
2018-08-09T01:37:02.128Z,99289.88
2018-08-09T01:39:32.888Z,99288.57
2018-08-09T01:42:14.673Z,99282.41
2018-08-09T01:44:44.893Z,99286.52
2018-08-09T01:47:16.023Z,99289.58
2018-08-09T01:49:45.806Z,99286.81
2018-08-09T01:52:16.063Z,99289.34
2018-08-09T01:54:46.064Z,99287.39
2018-08-09T01:57:16.740Z,99287.82
2018-08-09T01:59:47.154Z,99297.08
2018-08-09T02:02:17.203Z,99301.19
2018-08-09T02:04:47.085Z,99292.63
2018-08-09T02:07:17.659Z,99292.50
2018-08-09T02:09:48.420Z,99291.76
2018-08-09T02:12:18.188Z,99292.37
2018-08-09T02:14:48.496Z,99292.63
2018-08-09T02:17:18.787Z,99288.66
2018-08-09T02:19:49.588Z,99299.08
2018-08-09T02:22:20.179Z,99295.52
2018-08-09T02:24:50.529Z,99291.25
2018-08-09T02:27:20.660Z,99291.16
2018-08-09T02:29:50.981Z,99295.18
2018-08-09T02:32:21.476Z,99298.03
2018-08-09T02:34:52.750Z,99290.66
2018-08-09T02:37:22.443Z,99296.73
2018-08-09T02:39:52.937Z,99299.81
2018-08-09T02:42:23.829Z,99295.51
2018-08-09T02:44:54.574Z,99304.08
2018-08-09T02:47:24.791Z,99298.98
2018-08-09T02:49:55.401Z,99305.09
2018-08-09T02:52:25.931Z,99305.38
2018-08-09T02:54:56.510Z,99303.66
2018-08-09T02:57:27.381Z,99296.55
2018-08-09T02:59:58.516Z,99300.69
2018-08-09T03:02:29.640Z,99303.02
2018-08-09T03:05:01.209Z,99302.42
2018-08-09T03:07:32.903Z,99299.56
2018-08-09T03:10:04.702Z,99302.35
2018-08-09T03:12:34.784Z,99302.00
2018-08-09T03:15:05.364Z,99302.76
2018-08-09T03:17:35.908Z,99300.66
2018-08-09T03:20:05.873Z,99297.30
2018-08-09T03:22:35.973Z,99299.22
2018-08-09T03:25:06.484Z,99231.91
2018-08-09T03:27:37.199Z,99303.01
2018-08-09T03:30:08.298Z,99305.47
2018-08-09T03:32:38.701Z,99306.87
2018-08-09T03:35:08.726Z,99309.20
2018-08-09T03:37:38.778Z,99307.06
2018-08-09T03:40:08.915Z,99306.34
2018-08-09T03:42:39.891Z,99303.70
2018-08-09T03:45:10.361Z,99306.59
2018-08-09T03:47:40.594Z,99299.91
2018-08-09T03:50:10.497Z,99306.63
2018-08-09T03:52:40.318Z,99308.06
2018-08-09T03:55:12.028Z,99302.32
2018-08-09T03:57:41.938Z,99308.11
2018-08-09T04:00:11.847Z,99315.77
2018-08-09T04:02:41.513Z,99306.02
2018-08-09T04:05:11.539Z,99311.08
2018-08-09T04:07:42.089Z,99321.08
2018-08-09T04:10:12.102Z,99317.83
2018-08-09T04:12:42.396Z,99316.97
2018-08-09T04:15:13.292Z,99309.45
2018-08-09T04:17:43.183Z,99313.42
2018-08-09T04:20:12.906Z,99307.42
2018-08-09T04:22:43.285Z,99308.25
2018-08-09T04:25:12.943Z,99307.78
2018-08-09T04:27:42.658Z,99310.13
2018-08-09T04:30:14.355Z,99326.58
2018-08-09T04:32:44.234Z,99329.05
2018-08-09T04:35:14.239Z,99330.74
2018-08-09T04:37:44.616Z,99334.36
2018-08-09T04:40:14.744Z,99331.25
2018-08-09T04:43:47.899Z,99334.65
2018-08-09T04:46:19.938Z,99334.47
2018-08-09T04:48:50.553Z,99340.55
2018-08-09T04:51:20.686Z,99341.05
2018-08-09T04:53:50.550Z,99340.29
2018-08-09T04:56:20.600Z,99339.86
2018-08-09T04:58:51.390Z,99344.74
2018-08-09T05:01:23.659Z,99340.20
2018-08-09T05:03:53.775Z,99340.31
2018-08-09T05:06:23.927Z,99337.48
2018-08-09T05:08:54.322Z,99341.39
2018-08-09T05:11:24.083Z,99341.02
2018-08-09T05:13:54.217Z,99344.38
2018-08-09T05:16:25.165Z,99348.69
2018-08-09T05:18:55.460Z,99345.06
2018-08-09T05:21:25.208Z,99338.32
2018-08-09T05:23:55.220Z,99343.52
2018-08-09T05:26:26.025Z,99339.63
2018-08-09T05:28:56.346Z,99340.84
2018-08-09T05:31:27.217Z,99336.69
2018-08-09T05:33:57.371Z,99335.35
2018-08-09T05:36:27.682Z,99335.12
2018-08-09T05:38:58.275Z,99336.36
2018-08-09T05:41:28.629Z,99336.48
2018-08-09T05:43:58.511Z,99332.59
2018-08-09T05:46:29.139Z,99335.63
2018-08-09T05:48:59.386Z,99337.04
2018-08-09T05:51:29.414Z,99333.58
2018-08-09T05:54:00.284Z,99339.70
2018-08-09T05:56:30.741Z,99325.75
2018-08-09T05:59:00.781Z,99335.05
2018-08-09T06:01:31.086Z,99329.92
2018-08-09T06:04:01.984Z,99330.02
2018-08-09T06:06:32.651Z,99336.98
2018-08-09T06:09:03.601Z,99338.06
2018-08-09T06:11:33.577Z,99337.68
2018-08-09T06:14:04.371Z,99334.64
2018-08-09T06:16:35.165Z,99331.59
2018-08-09T06:19:06.226Z,99325.47
2018-08-09T06:21:36.254Z,99329.00
2018-08-09T06:24:06.600Z,99334.71
2018-08-09T06:26:37.401Z,99338.49
2018-08-09T06:29:07.748Z,99329.58
2018-08-09T06:31:38.884Z,99341.94
2018-08-09T06:34:09.045Z,99334.13
2018-08-09T06:36:38.869Z,99332.56
2018-08-09T06:39:10.549Z,99329.78
2018-08-09T06:41:44.173Z,99333.65
2018-08-09T06:44:14.533Z,99325.67
2018-08-09T06:46:46.713Z,99325.05
2018-08-09T06:49:17.326Z,99206.14
2018-08-09T06:52:52.445Z,99321.97
2018-08-09T06:55:23.655Z,99322.98
2018-08-09T06:57:53.630Z,99319.09
2018-08-09T07:00:23.866Z,99309.77
2018-08-09T07:02:54.324Z,99311.48
2018-08-09T07:05:25.714Z,99303.97
2018-08-09T07:07:55.571Z,99304.69
2018-08-09T07:10:26.870Z,99297.42
2018-08-09T07:12:56.965Z,99298.33
2018-08-09T07:15:27.272Z,99297.59
2018-08-09T07:17:57.301Z,99293.81
2018-08-09T07:20:27.680Z,99283.84
2018-08-09T07:22:58.787Z,99282.49
2018-08-09T07:25:28.847Z,99273.70
2018-08-09T07:27:59.108Z,99269.55
2018-08-09T07:30:29.028Z,99269.55
2018-08-09T07:33:00.100Z,99271.11
2018-08-09T07:35:30.372Z,99270.67
2018-08-09T07:38:01.701Z,99250.97
2018-08-09T07:42:54.387Z,99271.45
2018-08-09T07:45:25.680Z,99265.94
2018-08-09T07:47:56.489Z,99263.23
2018-08-09T07:50:27.576Z,99256.38
2018-08-09T07:52:57.415Z,99247.03
2018-08-09T07:55:27.334Z,99248.83
2018-08-09T07:57:57.734Z,99242.55
2018-08-09T08:00:29.558Z,99242.62
2018-08-09T08:02:59.779Z,99240.16
2018-08-09T08:05:30.278Z,99240.09
2018-08-09T08:08:00.476Z,99238.53
2018-08-09T08:10:32.424Z,99233.55
2018-08-09T08:13:04.020Z,99229.27
2018-08-09T08:15:34.375Z,99227.69
2018-08-09T08:18:05.535Z,99222.28
2018-08-09T08:20:36.246Z,99224.50
2018-08-09T08:23:08.164Z,99220.90
2018-08-09T08:25:38.408Z,99215.45
2018-08-09T08:28:11.372Z,99208.89
2018-08-09T08:30:41.364Z,99208.06
2018-08-09T08:33:17.025Z,99205.62
2018-08-09T08:35:50.314Z,99206.94
2018-08-09T08:38:20.695Z,99200.95
2018-08-09T08:40:51.400Z,99195.59
2018-08-09T08:43:22.817Z,99196.30
2018-08-09T08:45:53.039Z,99198.05
2018-08-09T08:48:23.571Z,99195.83
2018-08-09T08:50:56.275Z,99195.53
2018-08-09T08:53:29.058Z,99185.67
2018-08-09T08:55:59.716Z,99178.53
2018-08-09T08:58:30.578Z,99177.89
2018-08-09T09:01:01.713Z,99163.84
2018-08-09T09:03:32.652Z,99162.84
2018-08-09T09:06:03.738Z,99161.81
2018-08-09T09:08:34.021Z,99155.55
2018-08-09T09:11:05.099Z,99158.03
2018-08-09T09:13:34.969Z,99150.61
2018-08-09T09:16:05.186Z,99152.17
2018-08-09T09:18:35.642Z,99148.06
2018-08-09T09:21:05.755Z,99144.85
2018-08-09T09:23:36.092Z,99143.31
2018-08-09T09:26:07.631Z,99140.89
2018-08-09T09:28:37.753Z,99136.70
2018-08-09T09:31:08.323Z,99135.28
2018-08-09T09:33:39.391Z,99128.25
2018-08-09T09:36:10.917Z,99129.03
2018-08-09T09:38:40.926Z,99125.98
2018-08-09T09:41:12.816Z,99122.74
2018-08-09T09:43:43.169Z,99058.53
2018-08-09T09:46:14.123Z,99109.55
2018-08-09T09:48:44.137Z,99107.54
2018-08-09T09:51:14.670Z,99106.17
2018-08-09T09:53:45.581Z,99100.16
2018-08-09T09:56:19.541Z,99107.62
2018-08-09T09:58:50.736Z,99094.69
2018-08-09T10:01:27.298Z,99089.81
2018-08-09T10:04:00.220Z,99087.67
2018-08-09T10:06:33.955Z,99073.17
2018-08-09T10:09:06.181Z,99090.06
2018-08-09T10:11:37.770Z,99082.48
2018-08-09T10:14:08.355Z,99067.98
2018-08-09T10:16:39.720Z,99059.42
2018-08-09T10:19:10.722Z,99045.35
2018-08-09T10:21:41.492Z,99033.94
2018-08-09T10:24:14.276Z,99031.40
2018-08-09T10:26:44.754Z,99028.58
2018-08-09T10:29:15.314Z,99019.17
2018-08-09T10:31:45.833Z,99025.18
2018-08-09T10:34:15.889Z,99021.07
2018-08-09T10:36:45.856Z,99018.42
2018-08-09T10:39:17.180Z,99013.22
2018-08-09T10:41:47.913Z,99012.92
2018-08-09T10:44:20.271Z,99001.86
2018-08-09T10:46:51.645Z,98997.53
2018-08-09T10:49:21.765Z,98993.49
2018-08-09T10:51:52.669Z,98985.45
2018-08-09T10:54:25.257Z,98974.70
2018-08-09T10:56:55.757Z,98985.29
2018-08-09T10:59:31.261Z,98976.75
2018-08-09T11:02:05.169Z,98976.05
2018-08-09T11:04:36.836Z,98967.84
2018-08-09T11:07:08.365Z,98970.41
2018-08-09T11:09:40.454Z,98958.55
2018-08-09T11:12:10.921Z,98949.99
2018-08-09T11:14:45.365Z,98952.42
2018-08-09T11:17:20.997Z,98931.82
2018-08-09T11:19:55.627Z,98887.82
2018-08-09T11:22:29.389Z,98930.30
2018-08-09T11:25:00.683Z,98926.41
2018-08-09T11:27:31.168Z,98916.86
2018-08-09T11:30:09.525Z,98910.06
2018-08-09T11:32:39.636Z,98913.95
2018-08-09T11:35:12.724Z,98905.77
2018-08-09T11:37:43.077Z,98903.03
2018-08-09T11:40:14.241Z,98896.41
2018-08-09T11:42:44.916Z,98889.94
2018-08-09T11:45:17.673Z,98878.03
2018-08-09T11:47:49.027Z,98874.14
2018-08-09T11:50:21.712Z,98861.29
2018-08-09T11:52:53.387Z,98859.52
2018-08-09T11:55:23.860Z,98858.78
2018-08-09T11:57:59.859Z,98853.68
2018-08-09T12:00:31.056Z,98853.55
2018-08-09T12:03:04.262Z,98850.27
2018-08-09T12:05:35.500Z,98848.69
2018-08-09T12:08:06.906Z,98860.73
2018-08-09T12:10:38.340Z,98845.86
2018-08-09T12:13:09.002Z,98849.66
2018-08-09T12:15:39.229Z,98852.61
2018-08-09T12:18:10.389Z,98848.75
2018-08-09T12:20:42.351Z,98830.78
2018-08-09T12:23:13.504Z,98812.55
2018-08-09T12:25:44.238Z,98814.66
2018-08-09T12:28:14.591Z,98806.62
2018-08-09T12:30:44.381Z,98803.23
2018-08-09T12:33:14.456Z,98797.73
2018-08-09T12:35:45.585Z,98798.95
2018-08-09T12:38:15.986Z,98787.30
2018-08-09T12:40:46.523Z,98733.00
2018-08-09T12:43:16.584Z,98780.09
2018-08-09T12:45:47.602Z,98776.98
2018-08-09T12:48:17.730Z,98774.18
2018-08-09T12:50:48.297Z,98771.22
2018-08-09T12:53:19.494Z,98771.03
2018-08-09T12:55:49.560Z,98760.88
2018-08-09T12:58:19.628Z,98753.98
2018-08-09T13:00:57.669Z,98744.30
2018-08-09T13:03:36.333Z,98741.49
2018-08-09T13:06:10.266Z,98736.63
2018-08-09T13:08:43.087Z,98734.82
2018-08-09T13:11:18.387Z,98735.52
2018-08-09T13:13:56.959Z,98740.16
2018-08-09T13:16:35.539Z,98736.10
2018-08-09T13:19:06.965Z,98730.17
2018-08-09T13:21:42.072Z,98721.72
2018-08-09T13:24:15.374Z,98734.17
2018-08-09T13:26:50.933Z,98717.58
2018-08-09T13:29:22.906Z,98714.86
2018-08-09T13:31:54.332Z,98707.53
2018-08-09T13:34:31.253Z,98705.97
2018-08-09T13:37:03.095Z,98694.91
2018-08-09T13:39:37.441Z,98693.58
2018-08-09T13:42:10.247Z,98694.73
2018-08-09T13:44:47.339Z,98693.58
2018-08-09T13:47:19.994Z,98682.81
2018-08-09T13:50:03.954Z,98681.77
2018-08-09T13:52:37.935Z,98674.51
2018-08-09T13:55:14.716Z,98668.84
2018-08-09T13:57:55.469Z,98673.77
2018-08-09T14:00:32.109Z,98667.28
2018-08-09T14:03:02.726Z,98656.25
2018-08-09T14:05:38.226Z,98651.96
2018-08-09T14:08:10.123Z,98646.78
2018-08-09T14:10:47.670Z,98652.44
2018-08-09T14:13:19.834Z,98646.25
2018-08-09T14:15:53.057Z,98636.58
2018-08-09T14:18:24.852Z,98635.77
2018-08-09T14:20:56.605Z,98634.36
2018-08-09T14:23:28.551Z,98596.11
2018-08-09T14:25:58.672Z,98638.83
2018-08-09T14:28:30.067Z,98637.47
2018-08-09T14:31:01.150Z,98636.33
2018-08-09T14:33:32.954Z,98650.63
2018-08-09T14:36:08.652Z,98638.28
2018-08-09T14:38:46.068Z,98643.14
2018-08-09T14:41:17.194Z,98634.22
2018-08-09T14:43:47.549Z,98630.75
2018-08-09T14:46:19.269Z,98621.92
2018-08-09T14:48:50.254Z,98622.34
2018-08-09T14:51:21.077Z,98625.07
2018-08-09T14:53:51.876Z,98624.06
2018-08-09T14:56:22.115Z,98622.81
2018-08-09T14:58:52.082Z,98613.70
2018-08-09T15:01:23.985Z,98635.08
2018-08-09T15:03:55.012Z,98631.28
2018-08-09T15:06:26.930Z,98636.72
2018-08-09T15:08:59.115Z,98632.75
2018-08-09T15:11:31.322Z,98628.05
2018-08-09T15:14:06.929Z,98623.20
2018-08-09T15:16:37.712Z,98609.94
2018-08-09T15:19:08.918Z,98609.80
2018-08-09T15:21:43.553Z,98614.78
2018-08-09T15:24:14.360Z,98607.22
2018-08-09T15:26:45.754Z,98610.67
2018-08-09T15:29:15.671Z,98599.34
2018-08-09T15:31:47.759Z,98608.17
2018-08-09T15:34:20.040Z,98610.22
2018-08-09T15:36:50.465Z,98615.66
2018-08-09T15:39:21.574Z,98620.27
2018-08-09T15:41:51.596Z,98608.67
2018-08-09T15:44:22.501Z,98613.89
2018-08-09T15:46:53.291Z,98599.55
2018-08-09T15:49:23.351Z,98611.81
2018-08-09T15:51:54.147Z,98611.51
2018-08-09T15:54:25.044Z,98627.80
2018-08-09T15:56:56.791Z,98625.27
2018-08-09T15:59:27.117Z,98620.05
2018-08-09T16:01:58.589Z,98615.58
2018-08-09T16:04:29.871Z,98620.75
2018-08-09T16:07:00.537Z,98624.11
2018-08-09T16:09:31.924Z,98631.38
2018-08-09T16:12:03.035Z,98642.45
2018-08-09T16:14:33.722Z,98714.86
2018-08-09T16:17:05.609Z,98819.45
2018-08-09T16:19:35.418Z,98801.59
2018-08-09T16:22:05.531Z,98813.42
2018-08-09T16:24:35.650Z,98843.50
2018-08-09T16:27:05.727Z,98807.65
2018-08-09T16:29:35.773Z,98820.47
2018-08-09T16:32:05.976Z,98816.01
2018-08-09T16:34:36.222Z,98814.06
2018-08-09T16:37:06.575Z,98820.41
2018-08-09T16:39:36.575Z,98818.72
2018-08-09T16:42:06.659Z,98812.65
2018-08-09T16:44:36.582Z,98765.42
2018-08-09T16:47:06.804Z,98807.38
2018-08-09T16:49:36.625Z,98835.03
2018-08-09T16:52:07.796Z,98835.53
2018-08-09T16:54:37.672Z,98835.74
2018-08-09T16:57:07.768Z,98833.31
2018-08-09T16:59:38.091Z,98828.66
2018-08-09T17:02:08.603Z,98835.91
2018-08-09T17:04:38.459Z,98848.41
2018-08-09T17:07:08.664Z,98849.13
2018-08-09T17:09:38.975Z,98862.27
2018-08-09T17:12:09.995Z,98804.02
2018-08-09T17:14:39.953Z,98858.84
2018-08-09T17:17:10.111Z,98866.59
2018-08-09T17:19:40.400Z,98794.32
2018-08-09T17:22:10.543Z,98797.09
2018-08-09T17:24:40.656Z,98855.23
2018-08-09T17:27:10.681Z,98862.28
2018-08-09T17:29:40.784Z,98870.80
2018-08-09T17:32:11.328Z,98871.27
2018-08-09T17:34:41.796Z,98883.61
2018-08-09T17:37:11.856Z,98887.25
2018-08-09T17:39:45.804Z,98876.18
2018-08-09T17:42:16.679Z,98874.31
2018-08-09T17:44:46.798Z,98863.75
2018-08-09T17:47:17.777Z,98863.19
2018-08-09T17:49:47.774Z,98854.91
2018-08-09T17:52:17.748Z,98855.02
2018-08-09T17:54:47.783Z,98856.34
2018-08-09T17:57:17.772Z,98845.58
2018-08-09T17:59:48.370Z,98839.52
2018-08-09T18:02:20.629Z,98832.78
2018-08-09T18:04:51.002Z,98828.45
2018-08-09T18:07:21.017Z,98821.59
2018-08-09T18:09:51.045Z,98805.31
2018-08-09T18:12:21.878Z,98810.38
2018-08-09T18:14:52.123Z,98809.70
2018-08-09T18:17:22.361Z,98806.48
2018-08-09T18:19:52.485Z,98803.55
2018-08-09T18:22:24.124Z,98799.08
2018-08-09T18:24:54.023Z,98806.97
2018-08-09T18:27:25.323Z,98749.44
2018-08-09T18:29:55.411Z,98810.20
2018-08-09T18:32:29.557Z,98819.17
2018-08-09T18:35:00.601Z,98824.78
2018-08-09T18:37:31.192Z,98837.47
2018-08-09T18:40:02.104Z,98843.41
2018-08-09T18:42:33.427Z,98834.55
2018-08-09T18:45:04.526Z,98839.94
2018-08-09T18:47:35.995Z,98843.31
2018-08-09T18:50:10.774Z,98852.28
2018-08-09T18:52:42.259Z,98861.71
2018-08-09T18:55:12.727Z,98867.88
2018-08-09T18:57:44.097Z,98872.16
2018-08-09T19:00:21.814Z,98859.02
2018-08-09T19:02:52.638Z,98871.59
2018-08-09T19:05:24.366Z,98876.75
2018-08-09T19:07:55.703Z,98901.31
2018-08-09T19:10:30.437Z,98904.56
2018-08-09T19:13:00.496Z,98911.75
2018-08-09T19:15:30.572Z,98925.64
2018-08-09T19:18:02.328Z,98927.06
2018-08-09T19:20:33.917Z,98924.03
2018-08-09T19:23:04.988Z,98927.08
2018-08-09T19:25:37.258Z,98925.06
2018-08-09T19:28:08.004Z,98930.55
2018-08-09T19:30:38.555Z,98935.94
2018-08-09T19:33:09.535Z,98947.38
2018-08-09T19:35:39.491Z,98949.50
2018-08-09T19:38:10.773Z,98959.75
2018-08-09T19:40:41.109Z,98959.21
2018-08-09T19:43:10.901Z,98963.06
2018-08-09T19:45:41.371Z,98970.34
2018-08-09T19:48:11.498Z,98981.43
2018-08-09T19:50:43.644Z,98985.96
2018-08-09T19:53:14.140Z,98994.52
2018-08-09T19:55:44.060Z,98996.30
2018-08-09T19:58:14.477Z,98996.62
2018-08-09T20:00:45.011Z,99002.91
2018-08-09T20:03:16.749Z,99009.83
2018-08-09T20:05:46.651Z,99006.19
2018-08-09T20:08:17.580Z,99012.80
2018-08-09T20:10:48.079Z,99017.09
2018-08-09T20:13:19.302Z,99028.88
2018-08-09T20:15:50.178Z,99030.64
2018-08-09T20:18:21.106Z,99043.92
2018-08-09T20:20:51.168Z,99045.13
2018-08-09T20:23:23.261Z,99053.59
2018-08-09T20:25:53.152Z,99048.92
2018-08-09T20:28:23.485Z,99053.88
2018-08-09T20:30:53.819Z,99058.09
2018-08-09T20:33:25.977Z,99071.10
2018-08-09T20:35:56.305Z,99054.25
2018-08-09T20:38:27.204Z,99051.50
2018-08-09T20:40:57.682Z,99060.80
2018-08-09T20:43:28.540Z,99065.02
2018-08-09T20:46:01.117Z,99069.34
2018-08-09T20:48:30.962Z,99067.05
2018-08-09T20:51:02.950Z,99076.31
2018-08-09T20:53:33.011Z,99076.45
2018-08-09T20:56:03.663Z,99070.63
2018-08-09T20:58:33.776Z,99075.39
2018-08-09T21:01:03.730Z,99072.22
2018-08-09T21:03:33.880Z,99069.91
2018-08-09T21:08:10.257Z,99074.66
2018-08-09T21:10:41.252Z,99009.05
2018-08-09T21:13:12.721Z,99081.13
2018-08-09T21:15:44.190Z,99094.56
2018-08-09T21:18:16.564Z,99085.22
2018-08-09T21:20:46.352Z,99094.37
2018-08-09T21:23:16.535Z,99087.77
2018-08-09T21:25:46.678Z,99102.99
2018-08-09T21:28:18.303Z,99105.47
2018-08-09T21:30:48.355Z,99101.75
2018-08-09T21:33:18.916Z,99101.20
2018-08-09T21:35:48.702Z,99101.84
2018-08-09T21:38:19.006Z,99110.69
2018-08-09T21:40:48.736Z,99107.28
2018-08-09T21:43:20.385Z,99104.91
2018-08-09T21:45:52.301Z,99111.63
2018-08-09T21:48:22.676Z,99112.98
2018-08-09T21:50:52.983Z,99119.38
2018-08-09T21:53:23.337Z,99128.53
2018-08-09T21:55:54.977Z,99142.83
2018-08-09T21:58:27.498Z,99146.85
2018-08-09T22:01:00.867Z,99152.22
2018-08-09T22:03:34.116Z,99151.65
2018-08-09T22:07:33.474Z,99165.15
2018-08-09T22:10:10.286Z,99172.87
2018-08-09T22:12:45.206Z,99188.02
2018-08-09T22:15:20.481Z,99190.15
2018-08-09T22:17:55.997Z,99194.33
2018-08-09T22:20:32.627Z,99204.20
2018-08-09T22:23:03.250Z,99205.70
2018-08-09T22:25:33.314Z,99213.69
2018-08-09T22:28:03.508Z,99218.22
2018-08-09T22:30:33.315Z,99212.55
2018-08-09T22:33:03.258Z,99211.41
2018-08-09T22:35:33.548Z,99199.99
2018-08-09T22:38:03.296Z,99219.35
2018-08-09T22:40:35.005Z,99229.48
2018-08-09T22:43:05.644Z,99230.36
2018-08-09T22:45:35.659Z,99231.75
2018-08-09T22:48:06.083Z,99232.80
2018-08-09T22:50:36.905Z,99242.56
2018-08-09T22:53:06.850Z,99236.16
2018-08-09T22:55:37.185Z,99254.31
2018-08-09T22:58:07.592Z,99248.03
2018-08-09T23:00:38.168Z,99245.98
2018-08-09T23:03:11.060Z,99254.81
2018-08-09T23:05:42.416Z,99255.92
2018-08-09T23:08:13.545Z,99253.66
2018-08-09T23:10:44.176Z,99255.38
2018-08-09T23:13:15.185Z,99256.88
2018-08-09T23:15:46.278Z,99256.38
2018-08-09T23:18:17.223Z,99260.72
2018-08-09T23:20:47.413Z,99263.16
2018-08-09T23:23:17.252Z,99276.23
2018-08-09T23:25:46.980Z,99278.19
2018-08-09T23:28:17.111Z,99290.30
2018-08-09T23:30:47.934Z,99287.62
2018-08-09T23:33:22.470Z,99301.26
2018-08-09T23:35:53.221Z,99305.09
2018-08-09T23:38:23.350Z,99308.91
2018-08-09T23:40:53.777Z,99304.05
2018-08-09T23:43:24.430Z,99309.79
2018-08-09T23:45:55.929Z,99319.22
2018-08-09T23:48:26.214Z,99328.80
2018-08-09T23:50:56.364Z,99328.70
2018-08-09T23:53:26.630Z,99331.37
2018-08-09T23:55:56.656Z,99322.55
2018-08-09T23:58:27.122Z,99333.62
